createdAt,value
2022-10-07T00:00:30.087Z,70.61
2022-10-07T00:02:56.669Z,71.29
2022-10-07T00:05:23.240Z,71.39
2022-10-07T00:07:49.887Z,70.82
2022-10-07T00:10:16.403Z,71.19
2022-10-07T00:12:43.937Z,71.03
2022-10-07T00:15:10.765Z,71.86
2022-10-07T00:17:37.324Z,71.72
2022-10-07T00:20:04.869Z,71.78
2022-10-07T00:22:31.489Z,71.48
2022-10-07T00:24:58.006Z,71.19
2022-10-07T00:27:24.521Z,71.51
2022-10-07T00:29:53.049Z,70.74
2022-10-07T00:32:19.602Z,70.69
2022-10-07T00:34:46.404Z,70.96
2022-10-07T00:37:13.762Z,71.03
2022-10-07T00:39:42.308Z,71.09
2022-10-07T00:42:12.998Z,71.75
2022-10-07T00:44:42.272Z,71.12
2022-10-07T00:47:14.552Z,70.92
2022-10-07T00:49:56.682Z,71.06
2022-10-07T00:52:27.365Z,71.19
2022-10-07T00:54:57.048Z,72.27
2022-10-07T00:57:25.754Z,72.52
2022-10-07T00:59:55.498Z,73.05
2022-10-07T01:02:27.296Z,73.02
2022-10-07T01:04:56.609Z,73.71
2022-10-07T01:07:23.135Z,72.83
2022-10-07T01:09:51.538Z,73.13
2022-10-07T01:12:46.810Z,73.16
2022-10-07T01:15:37.502Z,72.48
2022-10-07T01:18:18.346Z,71.49
2022-10-07T01:21:30.938Z,71.47
2022-10-07T01:24:25.070Z,70.96
2022-10-07T01:27:01.147Z,70.91
2022-10-07T01:29:37.263Z,70.52
2022-10-07T01:32:19.653Z,71.51
2022-10-07T01:34:47.757Z,72.78
2022-10-07T01:37:17.809Z,72.64
2022-10-07T01:39:51.378Z,71.86
2022-10-07T01:42:19.972Z,73.73
2022-10-07T01:44:49.737Z,72.53
2022-10-07T01:47:17.002Z,73.18
2022-10-07T01:49:45.097Z,72.92
2022-10-07T01:52:27.156Z,71.88
2022-10-07T01:55:29.856Z,72.25
2022-10-07T01:58:14.456Z,72.48
2022-10-07T02:00:47.896Z,74.17
2022-10-07T02:03:22.106Z,73.72
2022-10-07T02:06:06.380Z,72.60
2022-10-07T02:08:52.587Z,71.61
2022-10-07T02:11:25.500Z,70.92
2022-10-07T02:14:05.893Z,70.21
2022-10-07T02:16:48.206Z,72.15
2022-10-07T02:19:23.406Z,72.23
2022-10-07T02:21:53.109Z,72.90
2022-10-07T02:24:23.460Z,72.07
2022-10-07T02:26:53.241Z,71.17
2022-10-07T02:29:23.134Z,72.23
2022-10-07T02:31:54.301Z,72.77
2022-10-07T02:34:24.601Z,72.03
2022-10-07T02:36:56.092Z,72.10
2022-10-07T02:39:22.632Z,71.91
2022-10-07T02:41:59.884Z,72.31
2022-10-07T02:44:59.710Z,71.84
2022-10-07T02:47:45.089Z,72.11
2022-10-07T02:50:16.765Z,71.87
2022-10-07T02:52:45.751Z,72.52
2022-10-07T02:55:17.970Z,71.64
2022-10-07T02:57:47.839Z,71.48
2022-10-07T03:00:16.645Z,70.88
2022-10-07T03:02:57.547Z,71.81
2022-10-07T03:05:33.730Z,71.68
2022-10-07T03:08:05.065Z,72.69
2022-10-07T03:10:32.568Z,72.56
2022-10-07T03:12:59.799Z,73.05
2022-10-07T03:15:27.384Z,72.07
2022-10-07T03:17:54.878Z,72.02
2022-10-07T03:20:21.486Z,72.44
2022-10-07T03:22:49.049Z,72.29
2022-10-07T03:25:17.825Z,72.07
2022-10-07T03:27:44.660Z,71.95
2022-10-07T03:30:11.850Z,72.73
2022-10-07T03:32:40.316Z,71.68
2022-10-07T03:35:08.937Z,72.74
2022-10-07T03:37:36.345Z,71.77
2022-10-07T03:40:04.830Z,72.03
2022-10-07T03:42:31.295Z,72.56
2022-10-07T03:44:57.843Z,72.52
2022-10-07T03:47:24.262Z,71.97
2022-10-07T03:49:51.054Z,72.30
2022-10-07T03:52:18.684Z,72.12
2022-10-07T03:54:45.753Z,72.03
2022-10-07T03:57:31.405Z,72.82
2022-10-07T04:00:00.129Z,73.21
2022-10-07T04:02:27.599Z,73.73
2022-10-07T04:04:55.429Z,73.87
2022-10-07T04:07:23.168Z,73.19
2022-10-07T04:09:50.878Z,72.79
2022-10-07T04:12:17.416Z,73.48
2022-10-07T04:14:43.835Z,73.92
2022-10-07T04:17:10.586Z,74.06
2022-10-07T04:19:37.126Z,73.64
2022-10-07T04:22:08.404Z,73.34
2022-10-07T04:24:35.346Z,73.51
2022-10-07T04:27:04.890Z,73.10
2022-10-07T04:29:35.417Z,73.86
2022-10-07T04:32:05.615Z,72.75
2022-10-07T04:34:32.105Z,72.89
2022-10-07T04:37:01.131Z,73.19
2022-10-07T04:39:49.064Z,72.25
2022-10-07T04:42:34.007Z,72.55
2022-10-07T04:45:01.087Z,72.01
2022-10-07T04:47:27.715Z,71.75
2022-10-07T04:49:55.059Z,72.57
2022-10-07T04:52:22.143Z,73.00
2022-10-07T04:54:48.982Z,73.30
2022-10-07T04:57:15.678Z,72.26
2022-10-07T04:59:43.781Z,72.72
2022-10-07T05:02:14.328Z,73.26
2022-10-07T05:04:42.009Z,72.30
2022-10-07T05:07:10.109Z,72.87
2022-10-07T05:09:36.998Z,73.24
2022-10-07T05:12:04.978Z,72.96
2022-10-07T05:14:33.596Z,73.77
2022-10-07T05:17:00.471Z,73.64
2022-10-07T05:19:31.132Z,73.53
2022-10-07T05:21:57.770Z,72.42
2022-10-07T05:24:25.589Z,72.78
2022-10-07T05:26:52.542Z,73.03
2022-10-07T05:29:19.578Z,72.81
2022-10-07T05:31:49.609Z,72.74
2022-10-07T05:34:20.174Z,72.57
2022-10-07T05:36:47.241Z,73.36
2022-10-07T05:39:14.495Z,72.34
2022-10-07T05:42:01.724Z,72.60
2022-10-07T05:44:34.574Z,72.82
2022-10-07T05:47:03.184Z,72.58
2022-10-07T05:49:30.574Z,72.85
2022-10-07T05:51:57.489Z,73.63
2022-10-07T05:54:24.442Z,73.31
2022-10-07T05:56:52.749Z,73.88
2022-10-07T05:59:20.628Z,73.67
2022-10-07T06:01:48.091Z,72.80
2022-10-07T06:04:19.887Z,73.82
2022-10-07T06:06:48.293Z,74.19
2022-10-07T06:09:37.621Z,73.56
2022-10-07T06:12:30.281Z,74.22
2022-10-07T06:14:59.252Z,74.80
2022-10-07T06:17:25.941Z,73.93
2022-10-07T06:19:55.556Z,73.81
2022-10-07T06:22:23.201Z,73.26
2022-10-07T06:24:52.029Z,73.98
2022-10-07T06:27:18.741Z,73.64
2022-10-07T06:29:45.228Z,73.36
2022-10-07T06:32:11.731Z,72.89
2022-10-07T06:34:39.684Z,71.75
2022-10-07T06:37:06.219Z,72.18
2022-10-07T06:39:33.528Z,72.77
2022-10-07T06:41:59.940Z,71.32
2022-10-07T06:44:44.900Z,70.84
2022-10-07T06:47:15.711Z,69.85
2022-10-07T06:49:44.154Z,69.68
2022-10-07T06:52:10.978Z,68.81
2022-10-07T06:54:37.684Z,68.96
2022-10-07T06:57:26.393Z,68.75
2022-10-07T06:59:54.885Z,69.53
2022-10-07T07:02:21.451Z,70.17
2022-10-07T07:04:47.984Z,69.58
2022-10-07T07:07:14.702Z,70.53
2022-10-07T07:09:41.154Z,69.41
2022-10-07T07:12:10.043Z,68.16
2022-10-07T07:14:40.195Z,66.45
2022-10-07T07:17:11.834Z,68.03
2022-10-07T07:19:39.012Z,66.92
2022-10-07T07:22:05.988Z,67.42
2022-10-07T07:24:32.432Z,67.62
2022-10-07T07:26:58.879Z,65.36
2022-10-07T07:29:28.328Z,66.24
2022-10-07T07:32:00.053Z,65.11
2022-10-07T07:34:31.171Z,65.16
2022-10-07T07:36:58.507Z,64.64
2022-10-07T07:39:30.242Z,64.60
2022-10-07T07:42:04.079Z,64.20
2022-10-07T07:44:34.126Z,63.42
2022-10-07T07:47:02.291Z,62.38
2022-10-07T07:49:31.894Z,61.55
2022-10-07T07:51:58.928Z,61.21
2022-10-07T07:54:30.505Z,60.41
2022-10-07T07:56:57.643Z,59.32
2022-10-07T07:59:26.585Z,58.94
2022-10-07T08:01:55.453Z,57.84
2022-10-07T08:04:23.739Z,57.22
2022-10-07T08:06:51.069Z,57.24
2022-10-07T08:09:18.498Z,57.34
2022-10-07T08:11:47.026Z,57.30
2022-10-07T08:14:17.181Z,56.69
2022-10-07T08:16:47.284Z,56.21
2022-10-07T08:19:13.842Z,56.68
2022-10-07T08:21:40.638Z,56.67
2022-10-07T08:24:12.330Z,56.85
2022-10-07T08:26:39.415Z,56.76
2022-10-07T08:29:08.701Z,56.45
2022-10-07T08:31:35.700Z,56.22
2022-10-07T08:34:04.101Z,56.34
2022-10-07T08:36:32.775Z,56.13
2022-10-07T08:39:00.731Z,55.78
2022-10-07T08:41:57.958Z,55.34
2022-10-07T08:44:35.880Z,54.79
2022-10-07T08:47:16.247Z,54.39
2022-10-07T08:50:07.460Z,54.13
2022-10-07T08:52:59.976Z,54.13
2022-10-07T08:55:54.757Z,53.99
2022-10-07T08:58:51.890Z,53.32
2022-10-07T09:01:30.911Z,53.54
2022-10-07T09:04:18.208Z,53.78
2022-10-07T09:06:55.262Z,54.31
2022-10-07T09:10:01.245Z,54.63
2022-10-07T09:12:42.913Z,54.08
2022-10-07T09:15:21.182Z,54.48
2022-10-07T09:17:54.233Z,54.21
2022-10-07T09:20:29.837Z,54.76
2022-10-07T09:22:59.180Z,54.26
2022-10-07T09:25:28.746Z,53.75
2022-10-07T09:27:55.527Z,53.92
2022-10-07T09:30:24.813Z,53.79
2022-10-07T09:32:56.485Z,54.07
2022-10-07T09:35:25.929Z,54.04
2022-10-07T09:38:05.471Z,54.10
2022-10-07T09:40:37.004Z,54.03
2022-10-07T09:43:14.041Z,53.64
2022-10-07T09:45:46.159Z,54.61
2022-10-07T09:48:21.256Z,54.67
2022-10-07T09:50:48.609Z,54.53
2022-10-07T09:53:29.020Z,54.38
2022-10-07T09:55:55.561Z,54.09
2022-10-07T09:58:26.302Z,53.46
2022-10-07T10:00:57.904Z,53.53
2022-10-07T10:03:33.270Z,53.74
2022-10-07T10:06:08.776Z,52.89
2022-10-07T10:08:44.781Z,52.35
2022-10-07T10:11:20.460Z,51.65
2022-10-07T10:13:50.222Z,52.16
2022-10-07T10:16:26.063Z,52.45
2022-10-07T10:18:58.871Z,51.38
2022-10-07T10:21:35.161Z,52.17
2022-10-07T10:24:06.242Z,51.33
2022-10-07T10:27:03.760Z,52.61
2022-10-07T10:29:47.362Z,51.64
2022-10-07T10:32:41.100Z,51.57
2022-10-07T10:35:19.390Z,51.10
2022-10-07T10:38:23.292Z,51.19
2022-10-07T10:41:05.455Z,51.09
2022-10-07T10:43:51.118Z,50.88
2022-10-07T10:46:51.773Z,51.05
2022-10-07T10:49:37.412Z,50.90
2022-10-07T10:52:21.017Z,52.08
2022-10-07T10:55:06.731Z,52.30
2022-10-07T10:57:42.466Z,51.61
2022-10-07T11:00:17.090Z,52.04
2022-10-07T11:03:05.540Z,52.31
2022-10-07T11:05:36.684Z,51.80
2022-10-07T11:08:27.518Z,52.17
2022-10-07T11:10:57.564Z,52.71
2022-10-07T11:13:37.491Z,53.17
2022-10-07T11:16:06.889Z,53.10
2022-10-07T11:18:48.711Z,52.65
2022-10-07T11:21:34.158Z,52.09
2022-10-07T11:24:10.152Z,53.03
2022-10-07T11:26:47.497Z,53.11
2022-10-07T11:29:31.200Z,53.04
2022-10-07T11:32:23.849Z,53.85
2022-10-07T11:34:58.989Z,54.33
2022-10-07T11:37:43.768Z,52.82
2022-10-07T11:40:11.954Z,53.46
2022-10-07T11:42:44.338Z,54.00
2022-10-07T11:45:19.077Z,54.63
2022-10-07T11:47:51.840Z,54.52
2022-10-07T11:50:29.416Z,53.97
2022-10-07T11:53:03.546Z,53.94
2022-10-07T11:55:39.770Z,54.49
2022-10-07T11:58:06.402Z,54.01
2022-10-07T12:00:35.877Z,54.20
2022-10-07T12:03:31.327Z,53.85
2022-10-07T12:06:07.781Z,55.57
2022-10-07T12:08:39.188Z,56.18
2022-10-07T12:11:12.398Z,56.29
2022-10-07T12:13:48.556Z,56.61
2022-10-07T12:16:23.899Z,55.86
2022-10-07T12:19:06.346Z,54.89
2022-10-07T12:22:02.827Z,54.87
2022-10-07T12:24:31.466Z,55.82
2022-10-07T12:27:19.833Z,55.58
2022-10-07T12:29:53.379Z,55.98
2022-10-07T12:32:52.928Z,56.00
2022-10-07T12:35:34.276Z,55.14
2022-10-07T12:38:14.273Z,55.57
2022-10-07T12:40:44.239Z,55.97
2022-10-07T12:43:24.857Z,55.34
2022-10-07T12:45:52.251Z,55.53
2022-10-07T12:48:22.473Z,54.87
2022-10-07T12:50:51.876Z,55.09
2022-10-07T12:53:27.911Z,54.41
2022-10-07T12:55:56.293Z,54.40
2022-10-07T12:58:49.127Z,54.95
2022-10-07T13:01:41.161Z,54.71
2022-10-07T13:04:26.302Z,55.03
2022-10-07T13:07:23.393Z,55.02
2022-10-07T13:09:59.433Z,55.54
2022-10-07T13:12:37.983Z,54.91
2022-10-07T13:15:42.605Z,55.29
2022-10-07T13:18:20.737Z,55.37
2022-10-07T13:21:02.640Z,55.23
2022-10-07T13:23:30.983Z,56.69
2022-10-07T13:26:00.095Z,55.98
2022-10-07T13:28:35.831Z,55.45
2022-10-07T13:31:24.128Z,54.49
2022-10-07T13:33:52.031Z,55.27
2022-10-07T13:36:26.400Z,56.07
2022-10-07T13:39:15.923Z,55.26
2022-10-07T13:41:47.953Z,56.64
2022-10-07T13:44:18.359Z,56.34
2022-10-07T13:47:01.121Z,56.15
2022-10-07T13:49:30.855Z,55.30
2022-10-07T13:52:01.507Z,55.28
2022-10-07T13:54:32.594Z,55.29
2022-10-07T13:57:02.293Z,55.15
2022-10-07T13:59:29.502Z,55.07
2022-10-07T14:02:01.201Z,55.38
2022-10-07T14:04:31.363Z,55.70
2022-10-07T14:07:12.900Z,54.98
2022-10-07T14:09:44.387Z,55.38
2022-10-07T14:12:18.400Z,55.31
2022-10-07T14:14:48.217Z,55.68
2022-10-07T14:17:40.959Z,55.36
2022-10-07T14:20:29.788Z,55.49
2022-10-07T14:22:58.772Z,55.66
2022-10-07T14:25:28.012Z,55.63
2022-10-07T14:28:07.434Z,55.70
2022-10-07T14:30:56.955Z,55.45
2022-10-07T14:33:54.636Z,55.64
2022-10-07T14:36:22.099Z,55.50
2022-10-07T14:38:51.086Z,56.07
2022-10-07T14:41:20.392Z,55.85
2022-10-07T14:43:48.784Z,56.36
2022-10-07T14:46:18.220Z,55.82
2022-10-07T14:48:45.644Z,56.28
2022-10-07T14:51:12.815Z,56.64
2022-10-07T14:53:41.977Z,56.78
2022-10-07T14:56:22.288Z,56.77
2022-10-07T14:58:48.749Z,57.20
2022-10-07T15:01:15.218Z,57.45
2022-10-07T15:03:41.759Z,57.38
2022-10-07T15:06:08.308Z,57.67
2022-10-07T15:08:34.735Z,57.98
2022-10-07T15:11:01.411Z,58.18
2022-10-07T15:13:29.075Z,58.03
2022-10-07T15:15:55.710Z,58.38
2022-10-07T15:18:22.332Z,58.86
2022-10-07T15:20:55.250Z,58.62
2022-10-07T15:23:21.757Z,58.69
2022-10-07T15:25:48.149Z,58.68
2022-10-07T15:28:15.351Z,59.11
2022-10-07T15:30:41.886Z,58.77
2022-10-07T15:33:10.205Z,58.89
2022-10-07T15:35:37.465Z,59.07
2022-10-07T15:38:04.004Z,59.05
2022-10-07T15:40:31.148Z,59.40
2022-10-07T15:42:58.129Z,60.02
2022-10-07T15:45:25.485Z,60.01
2022-10-07T15:47:56.803Z,60.20
2022-10-07T15:50:27.394Z,60.30
2022-10-07T15:52:54.674Z,60.47
2022-10-07T15:55:21.106Z,60.36
2022-10-07T15:57:47.712Z,60.66
2022-10-07T16:00:15.032Z,61.01
2022-10-07T16:02:41.561Z,61.04
2022-10-07T16:05:09.632Z,61.30
2022-10-07T16:07:36.492Z,61.91
2022-10-07T16:10:03.537Z,62.58
2022-10-07T16:12:29.937Z,63.18
2022-10-07T16:14:56.346Z,63.80
2022-10-07T16:17:22.788Z,64.11
2022-10-07T16:19:49.218Z,64.66
2022-10-07T16:22:16.710Z,64.61
2022-10-07T16:24:43.190Z,64.78
2022-10-07T16:27:09.623Z,64.61
2022-10-07T16:29:54.855Z,64.57
2022-10-07T16:32:21.276Z,64.46
2022-10-07T16:34:48.228Z,64.31
2022-10-07T16:37:15.304Z,64.58
2022-10-07T16:39:41.920Z,65.14
2022-10-07T16:42:08.611Z,65.24
2022-10-07T16:44:35.315Z,66.35
2022-10-07T16:47:01.846Z,66.54
2022-10-07T16:49:30.107Z,67.13
2022-10-07T16:51:57.376Z,67.10
2022-10-07T16:54:24.345Z,66.87
2022-10-07T16:56:52.420Z,67.02
2022-10-07T16:59:23.147Z,67.13
2022-10-07T17:01:53.457Z,67.25
2022-10-07T17:04:20.109Z,67.81
2022-10-07T17:06:47.018Z,69.46
2022-10-07T17:09:16.329Z,69.66
2022-10-07T17:11:42.809Z,71.49
2022-10-07T17:14:18.221Z,71.59
2022-10-07T17:16:50.195Z,72.90
2022-10-07T17:19:19.129Z,74.53
2022-10-07T17:21:52.508Z,73.67
2022-10-07T17:24:21.315Z,73.09
2022-10-07T17:26:48.669Z,74.40
2022-10-07T17:29:18.169Z,73.66
2022-10-07T17:31:48.156Z,73.72
2022-10-07T17:34:16.013Z,73.81
2022-10-07T17:36:43.732Z,75.17
2022-10-07T17:39:10.382Z,76.93
2022-10-07T17:41:38.732Z,76.33
2022-10-07T17:44:10.281Z,75.13
2022-10-07T17:46:40.849Z,74.23
2022-10-07T17:49:09.718Z,73.83
2022-10-07T17:51:37.275Z,74.91
2022-10-07T17:54:05.912Z,75.19
2022-10-07T17:56:33.008Z,74.77
2022-10-07T17:58:59.541Z,74.54
2022-10-07T18:01:31.682Z,75.08
2022-10-07T18:04:04.275Z,76.58
2022-10-07T18:06:35.121Z,76.83
2022-10-07T18:09:04.581Z,76.66
2022-10-07T18:11:50.262Z,77.07
2022-10-07T18:14:35.577Z,76.27
2022-10-07T18:17:02.712Z,76.49
2022-10-07T18:19:29.594Z,76.69
2022-10-07T18:21:56.539Z,76.78
2022-10-07T18:24:27.446Z,76.19
2022-10-07T18:26:58.948Z,76.09
2022-10-07T18:29:30.199Z,76.14
2022-10-07T18:31:56.856Z,76.12
2022-10-07T18:34:23.764Z,77.26
2022-10-07T18:36:55.177Z,76.80
2022-10-07T18:39:22.910Z,77.43
2022-10-07T18:41:49.375Z,78.79
2022-10-07T18:44:15.938Z,78.32
2022-10-07T18:46:42.328Z,77.83
2022-10-07T18:49:09.329Z,77.74
2022-10-07T18:51:35.794Z,77.74
2022-10-07T18:54:04.579Z,77.55
2022-10-07T18:56:31.061Z,77.65
2022-10-07T18:58:58.265Z,76.53
2022-10-07T19:01:27.753Z,76.60
2022-10-07T19:04:01.076Z,77.09
2022-10-07T19:06:30.284Z,77.12
2022-10-07T19:08:59.093Z,77.13
2022-10-07T19:11:26.389Z,77.84
2022-10-07T19:13:58.141Z,77.86
2022-10-07T19:16:29.368Z,78.35
2022-10-07T19:18:59.193Z,78.89
2022-10-07T19:21:26.256Z,78.34
2022-10-07T19:23:54.813Z,77.38
2022-10-07T19:26:23.860Z,77.56
2022-10-07T19:28:52.399Z,77.59
2022-10-07T19:31:24.818Z,78.52
2022-10-07T19:33:56.260Z,78.63
2022-10-07T19:36:23.393Z,78.58
2022-10-07T19:38:53.502Z,78.59
2022-10-07T19:41:22.819Z,79.33
2022-10-07T19:43:51.266Z,79.21
2022-10-07T19:46:19.390Z,78.90
2022-10-07T19:48:46.041Z,78.67
2022-10-07T19:51:19.497Z,78.71
2022-10-07T19:53:47.466Z,79.29
2022-10-07T19:56:15.687Z,78.90
2022-10-07T19:58:47.860Z,79.68
2022-10-07T20:01:17.134Z,79.80
2022-10-07T20:03:43.958Z,79.10
2022-10-07T20:06:11.205Z,78.22
2022-10-07T20:08:40.246Z,78.47
2022-10-07T20:11:07.431Z,79.18
2022-10-07T20:13:38.207Z,79.86
2022-10-07T20:16:09.360Z,79.69
2022-10-07T20:18:37.549Z,80.25
2022-10-07T20:21:10.737Z,81.39
2022-10-07T20:23:40.334Z,80.67
2022-10-07T20:26:09.911Z,80.67
2022-10-07T20:28:39.314Z,79.75
2022-10-07T20:31:08.362Z,79.00
2022-10-07T20:33:39.287Z,79.59
2022-10-07T20:36:07.406Z,79.81
2022-10-07T20:38:54.606Z,80.06
2022-10-07T20:41:40.934Z,79.69
2022-10-07T20:44:07.654Z,79.70
2022-10-07T20:46:34.616Z,79.57
2022-10-07T20:49:02.524Z,80.24
2022-10-07T20:51:30.344Z,81.59
2022-10-07T20:53:56.734Z,81.47
2022-10-07T20:56:23.153Z,81.90
2022-10-07T20:58:49.555Z,81.88
2022-10-07T21:01:16.196Z,82.08
2022-10-07T21:03:42.684Z,81.61
2022-10-07T21:06:09.283Z,81.03
2022-10-07T21:08:35.736Z,81.17
2022-10-07T21:11:03.632Z,81.24
2022-10-07T21:13:31.421Z,81.52
2022-10-07T21:15:58.225Z,81.64
2022-10-07T21:18:26.472Z,81.99
2022-10-07T21:20:56.925Z,81.94
2022-10-07T21:23:23.939Z,81.63
2022-10-07T21:25:51.801Z,81.47
2022-10-07T21:28:19.247Z,80.92
2022-10-07T21:30:55.486Z,80.26
2022-10-07T21:33:22.198Z,80.11
2022-10-07T21:35:48.624Z,79.76
2022-10-07T21:38:15.702Z,79.88
2022-10-07T21:40:42.321Z,80.82
2022-10-07T21:43:08.757Z,80.92
2022-10-07T21:45:35.217Z,80.05
2022-10-07T21:48:01.871Z,80.43
2022-10-07T21:50:28.313Z,80.38
2022-10-07T21:52:54.745Z,80.63
2022-10-07T21:55:21.114Z,80.45
2022-10-07T21:57:47.517Z,80.78
2022-10-07T22:00:15.840Z,81.07
2022-10-07T22:02:42.278Z,81.59
2022-10-07T22:05:11.335Z,81.36
2022-10-07T22:07:56.316Z,80.87
2022-10-07T22:10:22.781Z,80.91
2022-10-07T22:12:49.495Z,81.70
2022-10-07T22:15:17.080Z,82.04
2022-10-07T22:17:43.457Z,81.90
2022-10-07T22:20:10.188Z,81.73
2022-10-07T22:22:37.396Z,81.59
2022-10-07T22:25:04.378Z,81.69
2022-10-07T22:27:30.832Z,81.19
2022-10-07T22:29:57.219Z,81.18
2022-10-07T22:32:26.709Z,80.43
2022-10-07T22:35:11.890Z,80.66
2022-10-07T22:37:41.039Z,80.57
2022-10-07T22:40:08.330Z,80.44
2022-10-07T22:42:35.333Z,81.33
2022-10-07T22:45:01.765Z,81.28
2022-10-07T22:47:28.306Z,81.68
2022-10-07T22:49:55.125Z,82.02
2022-10-07T22:52:22.358Z,82.50
2022-10-07T22:54:52.475Z,83.04
2022-10-07T22:57:22.214Z,82.81
2022-10-07T22:59:49.171Z,83.22
2022-10-07T23:02:17.942Z,83.52
2022-10-07T23:04:44.367Z,83.49
2022-10-07T23:07:10.789Z,83.64
2022-10-07T23:09:37.227Z,83.19
2022-10-07T23:12:05.923Z,83.59
2022-10-07T23:14:35.407Z,83.55
2022-10-07T23:17:01.994Z,83.39
2022-10-07T23:19:28.618Z,83.42
2022-10-07T23:21:55.840Z,84.25
2022-10-07T23:24:22.362Z,84.17
2022-10-07T23:26:48.727Z,84.65
2022-10-07T23:29:15.714Z,84.35
2022-10-07T23:31:45.056Z,84.48
2022-10-07T23:34:11.528Z,84.05
2022-10-07T23:36:40.595Z,83.90
2022-10-07T23:39:07.011Z,83.88
2022-10-07T23:41:33.487Z,83.57
2022-10-07T23:44:02.107Z,83.47
2022-10-07T23:46:32.740Z,82.89
2022-10-07T23:48:59.471Z,82.78
2022-10-07T23:51:32.250Z,82.27
2022-10-07T23:54:00.537Z,82.12
2022-10-07T23:56:27.043Z,82.09
2022-10-07T23:58:53.572Z,81.35
